sensor_id;sensor_type;location;lat;lon;timestamp;temperature;humidity
18577;DHT22;9418;52.694;13.294;2023-03-30T00:01:37;8.60;93.50
18577;DHT22;9418;52.694;13.294;2023-03-30T00:04:04;8.60;93.70
18577;DHT22;9418;52.694;13.294;2023-03-30T00:06:30;8.60;96.40
18577;DHT22;9418;52.694;13.294;2023-03-30T00:08:58;8.60;97.30
18577;DHT22;9418;52.694;13.294;2023-03-30T00:11:26;8.70;97.60
18577;DHT22;9418;52.694;13.294;2023-03-30T00:13:53;8.70;97.00
18577;DHT22;9418;52.694;13.294;2023-03-30T00:16:21;8.60;91.60
18577;DHT22;9418;52.694;13.294;2023-03-30T00:18:48;8.70;84.40
18577;DHT22;9418;52.694;13.294;2023-03-30T00:21:15;8.60;82.20
18577;DHT22;9418;52.694;13.294;2023-03-30T00:23:42;8.60;78.70
18577;DHT22;9418;52.694;13.294;2023-03-30T00:26:11;8.60;77.80
18577;DHT22;9418;52.694;13.294;2023-03-30T00:28:38;8.70;73.60
18577;DHT22;9418;52.694;13.294;2023-03-30T00:31:05;8.60;71.10
18577;DHT22;9418;52.694;13.294;2023-03-30T00:33:32;8.60;68.20
18577;DHT22;9418;52.694;13.294;2023-03-30T00:35:59;8.60;59.30
18577;DHT22;9418;52.694;13.294;2023-03-30T00:38:27;8.60;58.30
18577;DHT22;9418;52.694;13.294;2023-03-30T00:40:55;8.60;53.80
18577;DHT22;9418;52.694;13.294;2023-03-30T00:43:23;8.50;47.60
18577;DHT22;9418;52.694;13.294;2023-03-30T00:45:50;8.60;37.90
18577;DHT22;9418;52.694;13.294;2023-03-30T00:48:19;8.50;21.90
18577;DHT22;9418;52.694;13.294;2023-03-30T00:50:51;8.50;96.50
18577;DHT22;9418;52.694;13.294;2023-03-30T00:53:21;8.50;99.90
18577;DHT22;9418;52.694;13.294;2023-03-30T00:55:51;8.40;99.90
18577;DHT22;9418;52.694;13.294;2023-03-30T00:58:19;8.40;99.90
18577;DHT22;9418;52.694;13.294;2023-03-30T01:00:46;8.40;99.90
18577;DHT22;9418;52.694;13.294;2023-03-30T01:03:16;8.40;99.90
18577;DHT22;9418;52.694;13.294;2023-03-30T01:05:45;8.40;99.90
18577;DHT22;9418;52.694;13.294;2023-03-30T01:08:14;8.40;99.90
18577;DHT22;9418;52.694;13.294;2023-03-30T01:10:43;8.40;99.90
18577;DHT22;9418;52.694;13.294;2023-03-30T01:13:10;8.40;99.90
18577;DHT22;9418;52.694;13.294;2023-03-30T01:15:42;8.30;99.90
18577;DHT22;9418;52.694;13.294;2023-03-30T01:18:20;8.30;99.90
18577;DHT22;9418;52.694;13.294;2023-03-30T01:21:24;8.20;99.90
18577;DHT22;9418;52.694;13.294;2023-03-30T01:24:29;8.20;99.90
18577;DHT22;9418;52.694;13.294;2023-03-30T01:27:02;8.20;99.90
18577;DHT22;9418;52.694;13.294;2023-03-30T01:29:40;8.20;99.90
18577;DHT22;9418;52.694;13.294;2023-03-30T01:35:32;8.10;99.90
18577;DHT22;9418;52.694;13.294;2023-03-30T01:38:23;8.10;99.90
18577;DHT22;9418;52.694;13.294;2023-03-30T01:41:04;8.10;99.90
18577;DHT22;9418;52.694;13.294;2023-03-30T01:43:36;8.00;92.30
18577;DHT22;9418;52.694;13.294;2023-03-30T01:46:07;8.00;86.80
18577;DHT22;9418;52.694;13.294;2023-03-30T01:48:38;8.00;80.70
18577;DHT22;9418;52.694;13.294;2023-03-30T01:51:11;8.00;76.50
18577;DHT22;9418;52.694;13.294;2023-03-30T01:53:45;8.00;73.20
18577;DHT22;9418;52.694;13.294;2023-03-30T01:56:17;8.00;71.20
18577;DHT22;9418;52.694;13.294;2023-03-30T01:58:48;7.90;67.10
18577;DHT22;9418;52.694;13.294;2023-03-30T02:01:17;8.00;63.60
18577;DHT22;9418;52.694;13.294;2023-03-30T02:03:48;8.00;61.40
18577;DHT22;9418;52.694;13.294;2023-03-30T02:06:19;8.00;58.90
18577;DHT22;9418;52.694;13.294;2023-03-30T02:08:49;8.00;58.20
18577;DHT22;9418;52.694;13.294;2023-03-30T02:11:20;8.00;56.60
18577;DHT22;9418;52.694;13.294;2023-03-30T02:13:50;8.00;55.20
18577;DHT22;9418;52.694;13.294;2023-03-30T02:16:21;8.00;53.60
18577;DHT22;9418;52.694;13.294;2023-03-30T02:18:49;8.00;52.60
18577;DHT22;9418;52.694;13.294;2023-03-30T02:21:18;8.00;51.20
18577;DHT22;9418;52.694;13.294;2023-03-30T02:23:46;8.00;49.50
18577;DHT22;9418;52.694;13.294;2023-03-30T02:26:13;8.00;47.30
18577;DHT22;9418;52.694;13.294;2023-03-30T02:28:41;8.00;45.80
18577;DHT22;9418;52.694;13.294;2023-03-30T02:31:11;8.00;44.30
18577;DHT22;9418;52.694;13.294;2023-03-30T02:33:44;7.90;43.10
18577;DHT22;9418;52.694;13.294;2023-03-30T02:36:28;7.90;42.00
18577;DHT22;9418;52.694;13.294;2023-03-30T02:39:11;7.90;39.80
18577;DHT22;9418;52.694;13.294;2023-03-30T02:41:54;7.90;38.40
18577;DHT22;9418;52.694;13.294;2023-03-30T02:44:31;7.90;37.60
18577;DHT22;9418;52.694;13.294;2023-03-30T02:47:04;7.90;36.80
18577;DHT22;9418;52.694;13.294;2023-03-30T02:49:44;7.80;36.10
18577;DHT22;9418;52.694;13.294;2023-03-30T02:52:20;7.80;35.30
18577;DHT22;9418;52.694;13.294;2023-03-30T02:54:52;7.80;35.00
18577;DHT22;9418;52.694;13.294;2023-03-30T02:57:28;7.70;34.50
18577;DHT22;9418;52.694;13.294;2023-03-30T03:00:02;7.70;34.00
18577;DHT22;9418;52.694;13.294;2023-03-30T03:02:36;7.70;33.50
18577;DHT22;9418;52.694;13.294;2023-03-30T03:05:06;7.60;33.10
18577;DHT22;9418;52.694;13.294;2023-03-30T03:07:33;7.60;32.80
18577;DHT22;9418;52.694;13.294;2023-03-30T03:10:00;7.60;32.10
18577;DHT22;9418;52.694;13.294;2023-03-30T03:12:27;7.60;31.90
18577;DHT22;9418;52.694;13.294;2023-03-30T03:14:54;7.60;31.70
18577;DHT22;9418;52.694;13.294;2023-03-30T03:17:22;7.50;31.20
18577;DHT22;9418;52.694;13.294;2023-03-30T03:19:49;7.60;31.10
18577;DHT22;9418;52.694;13.294;2023-03-30T03:22:16;7.50;31.50
18577;DHT22;9418;52.694;13.294;2023-03-30T03:24:43;7.50;31.40
18577;DHT22;9418;52.694;13.294;2023-03-30T03:27:10;7.50;31.50
18577;DHT22;9418;52.694;13.294;2023-03-30T03:29:36;7.40;31.30
18577;DHT22;9418;52.694;13.294;2023-03-30T03:32:03;7.40;31.20
18577;DHT22;9418;52.694;13.294;2023-03-30T03:34:31;7.40;30.60
18577;DHT22;9418;52.694;13.294;2023-03-30T03:36:58;7.50;30.20
18577;DHT22;9418;52.694;13.294;2023-03-30T03:39:25;7.50;29.80
18577;DHT22;9418;52.694;13.294;2023-03-30T03:41:51;7.60;29.40
18577;DHT22;9418;52.694;13.294;2023-03-30T03:44:18;7.50;29.00
18577;DHT22;9418;52.694;13.294;2023-03-30T03:46:45;7.60;28.60
18577;DHT22;9418;52.694;13.294;2023-03-30T03:49:11;7.60;28.10
18577;DHT22;9418;52.694;13.294;2023-03-30T03:51:39;7.60;27.90
18577;DHT22;9418;52.694;13.294;2023-03-30T03:54:06;7.60;27.70
18577;DHT22;9418;52.694;13.294;2023-03-30T03:56:32;7.70;27.60
18577;DHT22;9418;52.694;13.294;2023-03-30T03:58:59;7.70;27.20
18577;DHT22;9418;52.694;13.294;2023-03-30T04:01:27;7.70;26.80
18577;DHT22;9418;52.694;13.294;2023-03-30T04:03:55;7.70;26.50
18577;DHT22;9418;52.694;13.294;2023-03-30T04:06:22;7.70;26.60
18577;DHT22;9418;52.694;13.294;2023-03-30T04:08:50;7.70;26.60
18577;DHT22;9418;52.694;13.294;2023-03-30T04:11:16;7.70;26.50
18577;DHT22;9418;52.694;13.294;2023-03-30T04:13:43;7.80;26.40
18577;DHT22;9418;52.694;13.294;2023-03-30T04:16:10;7.80;26.20
18577;DHT22;9418;52.694;13.294;2023-03-30T04:18:36;7.80;26.70
18577;DHT22;9418;52.694;13.294;2023-03-30T04:21:06;7.80;27.50
18577;DHT22;9418;52.694;13.294;2023-03-30T04:23:37;7.80;27.70
18577;DHT22;9418;52.694;13.294;2023-03-30T04:26:11;7.80;27.60
18577;DHT22;9418;52.694;13.294;2023-03-30T04:28:40;7.80;27.70
18577;DHT22;9418;52.694;13.294;2023-03-30T04:31:08;7.80;27.70
18577;DHT22;9418;52.694;13.294;2023-03-30T04:33:37;7.90;26.20
18577;DHT22;9418;52.694;13.294;2023-03-30T04:36:10;7.90;28.30
18577;DHT22;9418;52.694;13.294;2023-03-30T04:38:37;7.90;28.90
18577;DHT22;9418;52.694;13.294;2023-03-30T04:41:07;7.80;29.30
18577;DHT22;9418;52.694;13.294;2023-03-30T04:43:36;7.80;29.80
18577;DHT22;9418;52.694;13.294;2023-03-30T04:46:03;7.80;30.10
18577;DHT22;9418;52.694;13.294;2023-03-30T04:48:30;7.80;29.80
18577;DHT22;9418;52.694;13.294;2023-03-30T04:50:57;7.70;29.80
18577;DHT22;9418;52.694;13.294;2023-03-30T04:53:23;7.70;29.50
18577;DHT22;9418;52.694;13.294;2023-03-30T04:55:50;7.80;29.30
18577;DHT22;9418;52.694;13.294;2023-03-30T04:58:17;7.80;29.10
18577;DHT22;9418;52.694;13.294;2023-03-30T05:00:45;7.80;29.50
18577;DHT22;9418;52.694;13.294;2023-03-30T05:03:11;7.80;29.80
18577;DHT22;9418;52.694;13.294;2023-03-30T05:05:38;7.80;30.60
18577;DHT22;9418;52.694;13.294;2023-03-30T05:08:05;7.80;31.20
18577;DHT22;9418;52.694;13.294;2023-03-30T05:10:32;7.90;31.10
18577;DHT22;9418;52.694;13.294;2023-03-30T05:12:58;7.90;31.40
18577;DHT22;9418;52.694;13.294;2023-03-30T05:15:25;7.90;31.20
18577;DHT22;9418;52.694;13.294;2023-03-30T05:17:53;7.90;31.10
18577;DHT22;9418;52.694;13.294;2023-03-30T05:20:19;8.00;31.50
18577;DHT22;9418;52.694;13.294;2023-03-30T05:22:46;8.10;32.80
18577;DHT22;9418;52.694;13.294;2023-03-30T05:25:13;8.10;35.80
18577;DHT22;9418;52.694;13.294;2023-03-30T05:27:40;8.20;38.40
18577;DHT22;9418;52.694;13.294;2023-03-30T05:30:08;8.20;38.50
18577;DHT22;9418;52.694;13.294;2023-03-30T05:32:34;8.20;40.60
18577;DHT22;9418;52.694;13.294;2023-03-30T05:35:03;8.30;42.00
18577;DHT22;9418;52.694;13.294;2023-03-30T05:37:29;8.20;44.10
18577;DHT22;9418;52.694;13.294;2023-03-30T05:39:56;8.20;43.50
18577;DHT22;9418;52.694;13.294;2023-03-30T05:42:23;8.30;43.40
18577;DHT22;9418;52.694;13.294;2023-03-30T05:44:49;8.30;43.40
18577;DHT22;9418;52.694;13.294;2023-03-30T05:47:16;8.30;43.60
18577;DHT22;9418;52.694;13.294;2023-03-30T05:49:43;8.30;45.30
18577;DHT22;9418;52.694;13.294;2023-03-30T05:52:11;8.40;50.70
18577;DHT22;9418;52.694;13.294;2023-03-30T05:54:37;8.40;49.50
18577;DHT22;9418;52.694;13.294;2023-03-30T05:57:04;8.50;51.50
18577;DHT22;9418;52.694;13.294;2023-03-30T05:59:31;8.40;50.70
18577;DHT22;9418;52.694;13.294;2023-03-30T06:01:57;8.50;51.00
18577;DHT22;9418;52.694;13.294;2023-03-30T06:04:25;8.50;53.60
18577;DHT22;9418;52.694;13.294;2023-03-30T06:06:52;8.50;54.60
18577;DHT22;9418;52.694;13.294;2023-03-30T06:09:20;8.50;55.50
18577;DHT22;9418;52.694;13.294;2023-03-30T06:11:48;8.50;56.00
18577;DHT22;9418;52.694;13.294;2023-03-30T06:14:16;8.60;57.60
18577;DHT22;9418;52.694;13.294;2023-03-30T06:16:43;8.60;59.50
18577;DHT22;9418;52.694;13.294;2023-03-30T06:19:10;8.60;59.90
18577;DHT22;9418;52.694;13.294;2023-03-30T06:21:37;8.60;62.30
18577;DHT22;9418;52.694;13.294;2023-03-30T06:24:04;8.70;64.80
18577;DHT22;9418;52.694;13.294;2023-03-30T06:26:32;8.80;67.30
18577;DHT22;9418;52.694;13.294;2023-03-30T06:28:59;8.80;66.90
18577;DHT22;9418;52.694;13.294;2023-03-30T06:31:26;8.90;68.40
18577;DHT22;9418;52.694;13.294;2023-03-30T06:33:53;8.90;74.60
18577;DHT22;9418;52.694;13.294;2023-03-30T06:36:19;9.00;76.00
18577;DHT22;9418;52.694;13.294;2023-03-30T06:38:46;9.10;77.80
18577;DHT22;9418;52.694;13.294;2023-03-30T06:41:14;9.10;81.90
18577;DHT22;9418;52.694;13.294;2023-03-30T06:43:42;9.20;81.60
18577;DHT22;9418;52.694;13.294;2023-03-30T06:46:08;9.20;88.20
18577;DHT22;9418;52.694;13.294;2023-03-30T06:48:36;9.30;95.10
18577;DHT22;9418;52.694;13.294;2023-03-30T06:51:03;9.30;99.50
18577;DHT22;9418;52.694;13.294;2023-03-30T06:53:31;9.40;99.90
18577;DHT22;9418;52.694;13.294;2023-03-30T06:55:58;9.40;99.90
18577;DHT22;9418;52.694;13.294;2023-03-30T06:58:26;9.40;99.90
18577;DHT22;9418;52.694;13.294;2023-03-30T07:00:54;9.50;99.90
18577;DHT22;9418;52.694;13.294;2023-03-30T07:03:21;9.50;99.90
18577;DHT22;9418;52.694;13.294;2023-03-30T07:05:48;9.50;99.90
18577;DHT22;9418;52.694;13.294;2023-03-30T07:08:15;9.50;99.90
18577;DHT22;9418;52.694;13.294;2023-03-30T07:10:42;9.60;99.90
18577;DHT22;9418;52.694;13.294;2023-03-30T07:13:09;9.60;99.90
18577;DHT22;9418;52.694;13.294;2023-03-30T07:15:36;9.60;99.90
18577;DHT22;9418;52.694;13.294;2023-03-30T07:18:04;9.70;99.90
18577;DHT22;9418;52.694;13.294;2023-03-30T07:20:30;9.90;99.90
18577;DHT22;9418;52.694;13.294;2023-03-30T07:22:57;10.00;99.90
18577;DHT22;9418;52.694;13.294;2023-03-30T07:25:24;10.10;99.90
18577;DHT22;9418;52.694;13.294;2023-03-30T07:27:51;10.10;99.90
18577;DHT22;9418;52.694;13.294;2023-03-30T07:30:18;10.30;99.90
18577;DHT22;9418;52.694;13.294;2023-03-30T07:32:46;10.30;99.90
18577;DHT22;9418;52.694;13.294;2023-03-30T07:35:14;10.40;99.90
18577;DHT22;9418;52.694;13.294;2023-03-30T07:37:41;10.50;99.90
18577;DHT22;9418;52.694;13.294;2023-03-30T07:40:08;10.60;99.90
18577;DHT22;9418;52.694;13.294;2023-03-30T07:42:36;10.70;99.90
18577;DHT22;9418;52.694;13.294;2023-03-30T07:45:02;10.90;99.90
18577;DHT22;9418;52.694;13.294;2023-03-30T07:47:29;11.10;99.90
18577;DHT22;9418;52.694;13.294;2023-03-30T07:49:56;11.30;99.90
18577;DHT22;9418;52.694;13.294;2023-03-30T07:52:24;11.40;99.90
18577;DHT22;9418;52.694;13.294;2023-03-30T07:54:51;11.40;99.90
18577;DHT22;9418;52.694;13.294;2023-03-30T07:57:19;11.40;75.90
18577;DHT22;9418;52.694;13.294;2023-03-30T07:59:46;11.50;24.90
18577;DHT22;9418;52.694;13.294;2023-03-30T08:02:13;11.50;84.40
18577;DHT22;9418;52.694;13.294;2023-03-30T08:04:40;11.70;32.00
18577;DHT22;9418;52.694;13.294;2023-03-30T08:07:08;11.80;49.90
18577;DHT22;9418;52.694;13.294;2023-03-30T08:09:36;12.00;53.10
18577;DHT22;9418;52.694;13.294;2023-03-30T08:12:03;12.10;47.50
18577;DHT22;9418;52.694;13.294;2023-03-30T08:14:30;12.20;77.80
18577;DHT22;9418;52.694;13.294;2023-03-30T08:16:57;12.30;79.70
18577;DHT22;9418;52.694;13.294;2023-03-30T08:19:23;12.40;77.30
18577;DHT22;9418;52.694;13.294;2023-03-30T08:21:52;12.60;99.90
18577;DHT22;9418;52.694;13.294;2023-03-30T08:24:20;13.10;99.90
18577;DHT22;9418;52.694;13.294;2023-03-30T08:26:48;13.30;99.90
18577;DHT22;9418;52.694;13.294;2023-03-30T08:29:15;13.70;99.90
18577;DHT22;9418;52.694;13.294;2023-03-30T08:31:43;14.00;99.90
18577;DHT22;9418;52.694;13.294;2023-03-30T08:34:10;14.30;99.90
18577;DHT22;9418;52.694;13.294;2023-03-30T08:36:37;14.50;29.50
18577;DHT22;9418;52.694;13.294;2023-03-30T08:39:03;14.70;62.40
18577;DHT22;9418;52.694;13.294;2023-03-30T08:44:33;15.50;99.90
18577;DHT22;9418;52.694;13.294;2023-03-30T08:47:02;15.80;99.90
18577;DHT22;9418;52.694;13.294;2023-03-30T08:49:33;15.70;99.90
18577;DHT22;9418;52.694;13.294;2023-03-30T08:52:02;15.80;99.90
18577;DHT22;9418;52.694;13.294;2023-03-30T08:54:31;16.00;99.90
18577;DHT22;9418;52.694;13.294;2023-03-30T08:57:04;16.10;99.90
18577;DHT22;9418;52.694;13.294;2023-03-30T08:59:38;16.20;99.90
18577;DHT22;9418;52.694;13.294;2023-03-30T09:02:14;16.50;99.90
18577;DHT22;9418;52.694;13.294;2023-03-30T09:04:50;16.60;99.90
18577;DHT22;9418;52.694;13.294;2023-03-30T09:07:23;16.60;99.90
18577;DHT22;9418;52.694;13.294;2023-03-30T09:09:50;16.40;99.90
18577;DHT22;9418;52.694;13.294;2023-03-30T09:12:22;16.50;99.90
18577;DHT22;9418;52.694;13.294;2023-03-30T09:14:57;16.40;99.90
18577;DHT22;9418;52.694;13.294;2023-03-30T09:17:30;16.40;99.90
18577;DHT22;9418;52.694;13.294;2023-03-30T09:20:00;16.50;99.90
18577;DHT22;9418;52.694;13.294;2023-03-30T09:22:32;16.50;99.90
18577;DHT22;9418;52.694;13.294;2023-03-30T09:25:01;16.40;99.90
18577;DHT22;9418;52.694;13.294;2023-03-30T09:27:32;16.30;99.90
18577;DHT22;9418;52.694;13.294;2023-03-30T09:30:16;16.00;99.90
18577;DHT22;9418;52.694;13.294;2023-03-30T09:32:52;16.00;99.90
18577;DHT22;9418;52.694;13.294;2023-03-30T09:35:25;15.90;99.90
18577;DHT22;9418;52.694;13.294;2023-03-30T09:37:54;16.10;99.90
18577;DHT22;9418;52.694;13.294;2023-03-30T09:40:30;16.20;99.90
18577;DHT22;9418;52.694;13.294;2023-03-30T09:43:07;16.20;99.90
18577;DHT22;9418;52.694;13.294;2023-03-30T09:45:37;16.30;99.90
18577;DHT22;9418;52.694;13.294;2023-03-30T09:48:06;16.60;99.90
18577;DHT22;9418;52.694;13.294;2023-03-30T09:50:37;17.10;99.90
18577;DHT22;9418;52.694;13.294;2023-03-30T09:53:05;17.40;99.90
18577;DHT22;9418;52.694;13.294;2023-03-30T09:55:35;17.80;99.90
18577;DHT22;9418;52.694;13.294;2023-03-30T09:58:13;17.80;99.90
18577;DHT22;9418;52.694;13.294;2023-03-30T10:00:45;17.50;99.90
18577;DHT22;9418;52.694;13.294;2023-03-30T10:03:19;17.00;99.90
18577;DHT22;9418;52.694;13.294;2023-03-30T10:06:00;17.00;99.90
18577;DHT22;9418;52.694;13.294;2023-03-30T10:08:27;16.80;99.90
18577;DHT22;9418;52.694;13.294;2023-03-30T10:10:54;16.60;99.90
18577;DHT22;9418;52.694;13.294;2023-03-30T10:13:27;16.80;99.90
18577;DHT22;9418;52.694;13.294;2023-03-30T10:16:03;16.80;99.90
18577;DHT22;9418;52.694;13.294;2023-03-30T10:18:36;17.20;99.90
18577;DHT22;9418;52.694;13.294;2023-03-30T10:21:05;17.00;99.90
18577;DHT22;9418;52.694;13.294;2023-03-30T10:23:33;16.90;99.90
18577;DHT22;9418;52.694;13.294;2023-03-30T10:26:10;16.90;99.90
18577;DHT22;9418;52.694;13.294;2023-03-30T10:28:37;16.90;99.90
18577;DHT22;9418;52.694;13.294;2023-03-30T10:31:13;17.00;99.90
18577;DHT22;9418;52.694;13.294;2023-03-30T10:33:42;17.00;99.90
18577;DHT22;9418;52.694;13.294;2023-03-30T10:36:10;16.90;99.90
18577;DHT22;9418;52.694;13.294;2023-03-30T10:38:39;16.90;99.90
18577;DHT22;9418;52.694;13.294;2023-03-30T10:41:09;16.90;99.90
18577;DHT22;9418;52.694;13.294;2023-03-30T10:43:37;16.90;99.90
18577;DHT22;9418;52.694;13.294;2023-03-30T10:46:10;17.00;99.90
18577;DHT22;9418;52.694;13.294;2023-03-30T10:48:46;17.10;99.90
18577;DHT22;9418;52.694;13.294;2023-03-30T10:51:23;17.20;99.90
18577;DHT22;9418;52.694;13.294;2023-03-30T10:53:57;17.50;99.90
18577;DHT22;9418;52.694;13.294;2023-03-30T10:56:33;17.90;99.90
18577;DHT22;9418;52.694;13.294;2023-03-30T10:59:32;18.40;99.90
18577;DHT22;9418;52.694;13.294;2023-03-30T11:02:22;18.30;99.90
18577;DHT22;9418;52.694;13.294;2023-03-30T11:04:57;17.90;99.90
18577;DHT22;9418;52.694;13.294;2023-03-30T11:07:28;18.00;1.40
18577;DHT22;9418;52.694;13.294;2023-03-30T11:10:02;18.40;99.90
18577;DHT22;9418;52.694;13.294;2023-03-30T11:12:34;18.70;99.90
18577;DHT22;9418;52.694;13.294;2023-03-30T11:15:07;19.00;99.90
18577;DHT22;9418;52.694;13.294;2023-03-30T11:17:45;18.80;99.90
18577;DHT22;9418;52.694;13.294;2023-03-30T11:20:18;18.80;99.90
18577;DHT22;9418;52.694;13.294;2023-03-30T11:22:50;18.80;99.90
18577;DHT22;9418;52.694;13.294;2023-03-30T11:25:21;18.70;99.90
18577;DHT22;9418;52.694;13.294;2023-03-30T11:27:52;18.90;99.90
18577;DHT22;9418;52.694;13.294;2023-03-30T11:30:25;18.70;99.90
18577;DHT22;9418;52.694;13.294;2023-03-30T11:32:56;18.70;99.90
18577;DHT22;9418;52.694;13.294;2023-03-30T11:35:30;18.60;99.90
18577;DHT22;9418;52.694;13.294;2023-03-30T11:38:03;18.20;99.90
18577;DHT22;9418;52.694;13.294;2023-03-30T11:40:39;17.90;99.90
18577;DHT22;9418;52.694;13.294;2023-03-30T11:43:08;18.30;99.90
18577;DHT22;9418;52.694;13.294;2023-03-30T11:45:46;18.50;99.90
18577;DHT22;9418;52.694;13.294;2023-03-30T11:48:29;18.50;99.90
18577;DHT22;9418;52.694;13.294;2023-03-30T11:51:14;18.60;99.90
18577;DHT22;9418;52.694;13.294;2023-03-30T11:53:51;18.80;99.90
18577;DHT22;9418;52.694;13.294;2023-03-30T11:56:23;18.70;99.90
18577;DHT22;9418;52.694;13.294;2023-03-30T11:59:00;18.70;99.90
18577;DHT22;9418;52.694;13.294;2023-03-30T12:01:41;18.80;99.90
18577;DHT22;9418;52.694;13.294;2023-03-30T12:04:11;18.70;99.90
18577;DHT22;9418;52.694;13.294;2023-03-30T12:06:41;18.80;99.90
18577;DHT22;9418;52.694;13.294;2023-03-30T12:09:23;18.80;99.90
18577;DHT22;9418;52.694;13.294;2023-03-30T12:11:54;18.80;99.90
18577;DHT22;9418;52.694;13.294;2023-03-30T12:14:33;19.00;99.90
18577;DHT22;9418;52.694;13.294;2023-03-30T12:17:08;18.80;99.90
18577;DHT22;9418;52.694;13.294;2023-03-30T12:19:41;18.70;99.90
18577;DHT22;9418;52.694;13.294;2023-03-30T12:22:22;18.70;99.90
18577;DHT22;9418;52.694;13.294;2023-03-30T12:24:57;18.70;99.90
18577;DHT22;9418;52.694;13.294;2023-03-30T12:27:26;18.60;99.90
18577;DHT22;9418;52.694;13.294;2023-03-30T12:30:11;18.60;99.90
18577;DHT22;9418;52.694;13.294;2023-03-30T12:32:56;18.90;99.90
18577;DHT22;9418;52.694;13.294;2023-03-30T12:35:51;18.80;99.90
18577;DHT22;9418;52.694;13.294;2023-03-30T12:38:21;18.60;99.90
18577;DHT22;9418;52.694;13.294;2023-03-30T12:41:04;18.30;99.90
18577;DHT22;9418;52.694;13.294;2023-03-30T12:43:48;18.20;99.90
18577;DHT22;9418;52.694;13.294;2023-03-30T12:46:19;18.00;99.90
18577;DHT22;9418;52.694;13.294;2023-03-30T12:48:56;18.00;99.90
18577;DHT22;9418;52.694;13.294;2023-03-30T12:51:38;18.10;99.90
18577;DHT22;9418;52.694;13.294;2023-03-30T12:54:29;18.10;99.90
18577;DHT22;9418;52.694;13.294;2023-03-30T12:57:08;17.90;99.90
18577;DHT22;9418;52.694;13.294;2023-03-30T13:00:01;18.00;99.90
18577;DHT22;9418;52.694;13.294;2023-03-30T13:02:52;17.90;99.90
18577;DHT22;9418;52.694;13.294;2023-03-30T13:05:25;17.80;99.90
18577;DHT22;9418;52.694;13.294;2023-03-30T13:07:56;17.80;99.90
18577;DHT22;9418;52.694;13.294;2023-03-30T13:10:39;17.80;99.90
18577;DHT22;9418;52.694;13.294;2023-03-30T13:13:16;17.70;99.90
18577;DHT22;9418;52.694;13.294;2023-03-30T13:15:48;17.60;99.90
18577;DHT22;9418;52.694;13.294;2023-03-30T13:18:33;17.50;99.90
18577;DHT22;9418;52.694;13.294;2023-03-30T13:21:15;17.40;99.90
18577;DHT22;9418;52.694;13.294;2023-03-30T13:23:44;17.30;99.90
18577;DHT22;9418;52.694;13.294;2023-03-30T13:26:25;17.10;99.90
18577;DHT22;9418;52.694;13.294;2023-03-30T13:29:03;16.30;99.90
18577;DHT22;9418;52.694;13.294;2023-03-30T13:31:43;15.20;99.90
18577;DHT22;9418;52.694;13.294;2023-03-30T13:34:21;14.10;48.30
18577;DHT22;9418;52.694;13.294;2023-03-30T13:36:55;12.90;53.10
18577;DHT22;9418;52.694;13.294;2023-03-30T13:39:28;12.00;75.70
18577;DHT22;9418;52.694;13.294;2023-03-30T13:42:11;11.50;57.70
18577;DHT22;9418;52.694;13.294;2023-03-30T13:44:50;11.30;39.90
18577;DHT22;9418;52.694;13.294;2023-03-30T13:47:28;11.20;28.20
18577;DHT22;9418;52.694;13.294;2023-03-30T13:50:00;11.20;23.40
18577;DHT22;9418;52.694;13.294;2023-03-30T13:52:31;11.00;99.90
18577;DHT22;9418;52.694;13.294;2023-03-30T13:55:00;10.80;26.90
18577;DHT22;9418;52.694;13.294;2023-03-30T13:57:32;10.80;73.50
18577;DHT22;9418;52.694;13.294;2023-03-30T14:00:03;10.60;83.80
18577;DHT22;9418;52.694;13.294;2023-03-30T14:02:31;10.70;99.90
18577;DHT22;9418;52.694;13.294;2023-03-30T14:05:11;10.60;99.90
18577;DHT22;9418;52.694;13.294;2023-03-30T14:07:40;10.60;99.90
18577;DHT22;9418;52.694;13.294;2023-03-30T14:10:12;10.50;99.90
18577;DHT22;9418;52.694;13.294;2023-03-30T14:12:39;10.60;99.90
18577;DHT22;9418;52.694;13.294;2023-03-30T14:15:17;10.60;99.90
18577;DHT22;9418;52.694;13.294;2023-03-30T14:17:47;10.50;99.90
18577;DHT22;9418;52.694;13.294;2023-03-30T14:20:23;10.50;99.90
18577;DHT22;9418;52.694;13.294;2023-03-30T14:22:54;10.60;99.90
18577;DHT22;9418;52.694;13.294;2023-03-30T14:25:27;10.60;99.90
18577;DHT22;9418;52.694;13.294;2023-03-30T14:27:55;10.60;99.90
18577;DHT22;9418;52.694;13.294;2023-03-30T14:30:24;10.60;99.90
18577;DHT22;9418;52.694;13.294;2023-03-30T14:33:09;10.60;99.90
18577;DHT22;9418;52.694;13.294;2023-03-30T14:35:40;10.60;99.90
18577;DHT22;9418;52.694;13.294;2023-03-30T14:38:12;10.60;99.90
18577;DHT22;9418;52.694;13.294;2023-03-30T14:40:41;10.70;99.90
18577;DHT22;9418;52.694;13.294;2023-03-30T14:43:12;10.70;99.90
18577;DHT22;9418;52.694;13.294;2023-03-30T14:45:39;10.70;99.90
18577;DHT22;9418;52.694;13.294;2023-03-30T14:48:08;10.70;99.90
18577;DHT22;9418;52.694;13.294;2023-03-30T14:50:37;10.70;99.90
18577;DHT22;9418;52.694;13.294;2023-03-30T14:53:04;10.70;99.90
18577;DHT22;9418;52.694;13.294;2023-03-30T14:55:32;10.70;99.90
18577;DHT22;9418;52.694;13.294;2023-03-30T14:58:01;10.80;99.90
18577;DHT22;9418;52.694;13.294;2023-03-30T15:00:28;10.80;99.90
18577;DHT22;9418;52.694;13.294;2023-03-30T15:02:56;10.90;99.90
18577;DHT22;9418;52.694;13.294;2023-03-30T15:05:28;10.90;99.90
18577;DHT22;9418;52.694;13.294;2023-03-30T15:07:55;10.90;99.90
18577;DHT22;9418;52.694;13.294;2023-03-30T15:10:25;10.90;99.90
18577;DHT22;9418;52.694;13.294;2023-03-30T15:12:54;11.00;99.90
18577;DHT22;9418;52.694;13.294;2023-03-30T15:15:26;11.10;99.90
18577;DHT22;9418;52.694;13.294;2023-03-30T15:17:55;11.10;99.90
18577;DHT22;9418;52.694;13.294;2023-03-30T15:20:23;11.20;99.90
18577;DHT22;9418;52.694;13.294;2023-03-30T15:22:51;11.20;99.90
18577;DHT22;9418;52.694;13.294;2023-03-30T15:25:19;11.20;99.90
18577;DHT22;9418;52.694;13.294;2023-03-30T15:27:50;11.30;99.90
18577;DHT22;9418;52.694;13.294;2023-03-30T15:30:26;11.30;99.90
18577;DHT22;9418;52.694;13.294;2023-03-30T15:32:54;11.30;99.90
18577;DHT22;9418;52.694;13.294;2023-03-30T15:35:26;11.30;99.90
18577;DHT22;9418;52.694;13.294;2023-03-30T15:37:55;11.30;99.90
18577;DHT22;9418;52.694;13.294;2023-03-30T15:40:32;11.40;99.90
18577;DHT22;9418;52.694;13.294;2023-03-30T15:43:19;11.40;99.90
18577;DHT22;9418;52.694;13.294;2023-03-30T15:45:50;11.40;99.90
18577;DHT22;9418;52.694;13.294;2023-03-30T15:48:20;11.50;99.90
18577;DHT22;9418;52.694;13.294;2023-03-30T15:50:52;11.50;99.90
18577;DHT22;9418;52.694;13.294;2023-03-30T15:53:35;11.50;99.90
18577;DHT22;9418;52.694;13.294;2023-03-30T15:56:08;11.50;99.90
18577;DHT22;9418;52.694;13.294;2023-03-30T15:58:37;11.50;99.90
18577;DHT22;9418;52.694;13.294;2023-03-30T16:01:07;11.50;99.90
18577;DHT22;9418;52.694;13.294;2023-03-30T16:03:37;11.50;99.90
18577;DHT22;9418;52.694;13.294;2023-03-30T16:06:05;11.50;99.90
18577;DHT22;9418;52.694;13.294;2023-03-30T16:08:32;11.50;99.90